Time;durP1;ratioP1;P1;durP2;ratioP2;P2;SDS_P1;SDS_P2;PMS_P1;PMS_P2;Temp;Humidity;BMP_temperature;BMP_pressure;BME280_temperature;BME280_humidity;BME280_pressure;Samples;Min_cycle;Max_cycle;Signal;HPM_P1;HPM_P2
2022/07/01 00:01:49;;;;;;;2.33;1.50;;;;;;;17.60;100.00;96167.03;4960838;28;20287;-79
2022/07/01 00:04:16;;;;;;;2.20;1.60;;;;;;;17.54;100.00;96135.38;4946658;28;20304;-78
2022/07/01 00:06:44;;;;;;;2.60;1.73;;;;;;;17.44;100.00;96102.69;4949353;28;20300;-78
2022/07/01 00:09:11;;;;;;;2.80;1.53;;;;;;;17.47;100.00;96072.09;4964460;28;20209;-78
2022/07/01 00:11:38;;;;;;;1.87;1.50;;;;;;;17.46;100.00;96019.41;4964774;28;20217;-78
2022/07/01 00:14:06;;;;;;;2.70;1.60;;;;;;;17.44;100.00;96005.22;4947850;28;20212;-79
2022/07/01 00:16:33;;;;;;;3.00;1.63;;;;;;;17.37;100.00;96059.31;4962776;28;20244;-78
2022/07/01 00:19:00;;;;;;;2.57;1.50;;;;;;;17.37;100.00;96054.66;4953133;28;20205;-79
2022/07/01 00:21:28;;;;;;;4.10;1.73;;;;;;;17.40;100.00;96056.03;4938066;28;20213;-79
2022/07/01 00:23:56;;;;;;;1.90;1.70;;;;;;;17.26;100.00;96061.28;4939005;28;20213;-78
2022/07/01 00:26:23;;;;;;;2.00;1.57;;;;;;;17.18;100.00;96053.66;4949972;28;20255;-79
2022/07/01 00:28:50;;;;;;;1.83;1.53;;;;;;;17.11;100.00;96055.84;4942141;28;20215;-78
2022/07/01 00:31:17;;;;;;;3.53;1.70;;;;;;;17.07;100.00;96057.53;4945328;28;20220;-79
2022/07/01 00:33:44;;;;;;;2.63;1.50;;;;;;;17.00;100.00;96068.75;4944895;28;20201;-78
2022/07/01 00:36:11;;;;;;;3.30;1.77;;;;;;;16.97;100.00;96073.91;4951198;28;20666;-78
2022/07/01 00:38:38;;;;;;;2.27;1.40;;;;;;;16.94;100.00;96074.47;4937755;29;20221;-78
2022/07/01 00:41:07;;;;;;;1.50;1.40;;;;;;;17.02;100.00;96095.72;4942966;28;20266;-78
2022/07/01 00:43:38;;;;;;;2.77;1.30;;;;;;;17.19;100.00;96093.47;4963606;28;20205;-78
2022/07/01 00:46:05;;;;;;;1.63;1.53;;;;;;;17.33;100.00;96110.09;4952106;28;20504;-78
2022/07/01 00:48:33;;;;;;;2.07;1.40;;;;;;;17.42;100.00;96113.88;4945672;28;20205;-79
2022/07/01 00:51:01;;;;;;;2.33;1.63;;;;;;;17.55;100.00;96117.91;4963432;28;20313;-78
2022/07/01 00:53:29;;;;;;;2.30;1.17;;;;;;;17.39;100.00;96117.16;4948701;28;20221;-79
2022/07/01 00:55:56;;;;;;;2.23;1.30;;;;;;;17.37;100.00;96122.06;4947136;28;20255;-78
2022/07/01 00:58:27;;;;;;;2.30;1.40;;;;;;;17.49;100.00;96132.69;4964726;28;20236;-79
2022/07/01 01:00:55;;;;;;;2.37;1.23;;;;;;;17.35;100.00;96127.81;4964817;28;20208;-79
2022/07/01 01:03:22;;;;;;;1.20;1.10;;;;;;;17.22;100.00;96131.13;4958622;28;20234;-79
2022/07/01 01:05:50;;;;;;;1.00;0.90;;;;;;;17.30;100.00;96119.66;4940474;28;20215;-79
2022/07/01 01:08:17;;;;;;;0.90;0.90;;;;;;;17.18;100.00;96130.03;4962847;28;20211;-78
2022/07/01 01:10:45;;;;;;;1.57;1.00;;;;;;;17.12;100.00;96128.44;4956842;28;20209;-79
2022/07/01 01:13:12;;;;;;;3.47;1.03;;;;;;;17.13;100.00;96123.78;4945441;28;20213;-79
2022/07/01 01:15:41;;;;;;;0.80;0.80;;;;;;;17.14;100.00;96139.06;4964920;28;20243;-79
2022/07/01 01:18:08;;;;;;;3.13;1.00;;;;;;;17.03;100.00;96144.53;4942718;28;20212;-79
2022/07/01 01:20:37;;;;;;;1.00;0.90;;;;;;;17.01;100.00;96145.94;4944247;28;20214;-79
2022/07/01 01:23:05;;;;;;;1.03;0.80;;;;;;;16.97;100.00;96155.75;4958367;28;20240;-78
2022/07/01 01:25:32;;;;;;;0.80;0.80;;;;;;;16.91;100.00;96156.84;4959125;28;20203;-79
2022/07/01 01:27:59;;;;;;;0.80;0.80;;;;;;;16.93;100.00;96157.38;4962991;28;20216;-79
2022/07/01 01:30:27;;;;;;;1.00;1.00;;;;;;;16.81;100.00;96154.13;4947189;28;20256;-79
2022/07/01 01:32:54;;;;;;;1.70;0.80;;;;;;;16.81;100.00;96154.13;4957936;28;20213;-79
2022/07/01 01:35:22;;;;;;;3.53;1.00;;;;;;;16.81;100.00;96154.13;4946252;28;20216;-79
2022/07/01 01:37:51;;;;;;;0.80;0.80;;;;;;;16.73;100.00;96158.22;4955634;28;20328;-79
2022/07/01 01:40:18;;;;;;;1.37;1.07;;;;;;;16.70;100.00;96163.41;4949268;28;20208;-79
2022/07/01 01:42:46;;;;;;;0.70;0.70;;;;;;;16.72;100.00;96167.50;4959101;28;20206;-79
2022/07/01 01:45:13;;;;;;;0.80;0.80;;;;;;;16.65;100.00;96175.13;4948670;28;20236;-79
2022/07/01 01:47:41;;;;;;;0.80;0.80;;;;;;;16.63;100.00;96182.75;4948686;28;20212;-79
2022/07/01 01:50:10;;;;;;;0.80;0.80;;;;;;;16.52;100.00;96190.06;4958621;28;20221;-78
2022/07/01 01:52:38;;;;;;;1.93;1.00;;;;;;;16.51;100.00;96199.34;4969338;28;20208;-78
2022/07/01 01:55:07;;;;;;;1.33;0.80;;;;;;;16.57;100.00;96200.19;4968493;28;20229;-79
2022/07/01 01:57:34;;;;;;;0.90;0.90;;;;;;;16.55;100.00;96203.19;4945638;28;20275;-78
2022/07/01 02:00:04;;;;;;;0.70;0.70;;;;;;;16.51;100.00;96209.41;4948787;28;20271;-78
2022/07/01 02:02:38;;;;;;;1.17;1.10;;;;;;;16.49;100.00;96225.25;4962545;28;20236;-78
2022/07/01 02:05:08;;;;;;;1.07;1.00;;;;;;;16.57;100.00;96230.97;4951464;28;20255;-79
2022/07/01 02:07:35;;;;;;;1.10;0.90;;;;;;;16.63;100.00;96226.38;4950209;28;20284;-79
2022/07/01 02:10:02;;;;;;;2.03;1.20;;;;;;;16.72;100.00;96227.47;4964827;28;20211;-79
2022/07/01 02:12:31;;;;;;;1.53;1.00;;;;;;;16.70;100.00;96215.19;4956724;28;20204;-79
2022/07/01 02:14:59;;;;;;;1.07;0.83;;;;;;;16.71;100.00;96222.28;4966991;28;20276;-79
2022/07/01 02:17:26;;;;;;;3.03;1.00;;;;;;;16.73;100.00;96234.56;4946492;28;20309;-79
2022/07/01 02:19:53;;;;;;;1.10;0.80;;;;;;;16.77;100.00;96232.91;4961916;28;20209;-79
2022/07/01 02:22:20;;;;;;;1.00;0.97;;;;;;;16.77;100.00;96240.28;4962303;28;20216;-79
2022/07/01 02:24:48;;;;;;;1.93;0.90;;;;;;;16.69;100.00;96236.19;4951896;28;20232;-79
2022/07/01 02:27:15;;;;;;;1.73;1.00;;;;;;;16.69;100.00;96235.38;4966545;28;20216;-79
2022/07/01 02:29:43;;;;;;;0.90;0.90;;;;;;;16.69;100.00;96236.19;4966906;28;20259;-79
2022/07/01 02:32:10;;;;;;;1.90;1.00;;;;;;;16.67;100.00;96245.75;4948159;28;20224;-79
2022/07/01 02:34:37;;;;;;;1.13;1.00;;;;;;;16.64;100.00;96261.56;4947202;28;20307;-79
2022/07/01 02:37:05;;;;;;;2.20;1.13;;;;;;;16.59;100.00;96253.31;4945413;28;20269;-79
2022/07/01 02:39:33;;;;;;;3.00;0.93;;;;;;;16.50;100.00;96252.22;4951952;28;20220;-79
2022/07/01 02:44:46;;;;;;;2.17;1.20;;;;;;;16.46;100.00;96270.22;4949182;28;20214;-79
2022/07/01 02:47:13;;;;;;;2.73;1.00;;;;;;;16.46;100.00;96278.38;4961839;28;20220;-79
2022/07/01 02:49:41;;;;;;;1.10;1.00;;;;;;;16.50;100.00;96290.38;4948368;28;20222;-79
2022/07/01 02:52:08;;;;;;;1.00;0.90;;;;;;;16.47;100.00;96299.09;4963691;28;20208;-79
2022/07/01 02:54:35;;;;;;;1.10;1.00;;;;;;;16.48;100.00;96298.00;4967074;28;20221;-78
2022/07/01 02:57:02;;;;;;;1.20;1.10;;;;;;;16.46;100.00;96305.63;4940831;28;20297;-79
2022/07/01 02:59:29;;;;;;;1.53;1.00;;;;;;;16.41;100.00;96300.19;4946910;28;20276;-79
2022/07/01 03:01:58;;;;;;;1.10;0.90;;;;;;;16.34;100.00;96302.31;4949066;28;20206;-79
2022/07/01 03:04:25;;;;;;;1.67;0.80;;;;;;;16.31;100.00;96308.31;4943806;28;20229;-79
2022/07/01 03:06:52;;;;;;;0.90;0.90;;;;;;;16.26;100.00;96319.19;4950006;28;20205;-79
2022/07/01 03:09:19;;;;;;;1.23;0.80;;;;;;;16.15;100.00;96329.25;4951528;28;20354;-79
2022/07/01 03:11:46;;;;;;;0.80;0.80;;;;;;;15.92;100.00;96388.72;4948615;28;20249;-79
2022/07/01 03:14:13;;;;;;;1.10;0.90;;;;;;;15.97;100.00;96364.28;4945869;28;20248;-79
2022/07/01 03:16:41;;;;;;;1.10;0.90;;;;;;;16.04;100.00;96386.66;4964005;28;20229;-79
2022/07/01 03:19:10;;;;;;;1.00;0.80;;;;;;;15.99;100.00;96403.75;4956188;28;20209;-78
2022/07/01 03:21:37;;;;;;;1.90;0.83;;;;;;;15.96;100.00;96417.09;4951763;28;20212;-79
2022/07/01 03:24:05;;;;;;;0.80;0.80;;;;;;;15.80;100.00;96418.91;4943451;28;20210;-79
2022/07/01 03:26:32;;;;;;;0.80;0.80;;;;;;;15.61;100.00;96418.47;4965410;28;20220;-79
2022/07/01 03:28:59;;;;;;;0.80;0.80;;;;;;;15.60;100.00;96414.13;4958823;28;20260;-79
2022/07/01 03:31:26;;;;;;;1.00;0.90;;;;;;;15.64;100.00;96425.31;4958369;28;20204;-79
2022/07/01 03:33:53;;;;;;;4.80;1.53;;;;;;;15.74;100.00;96409.84;4943682;28;20264;-79
2022/07/01 03:36:21;;;;;;;3.17;1.20;;;;;;;15.71;100.00;96421.28;4946032;28;20224;-78
2022/07/01 03:38:48;;;;;;;1.80;1.10;;;;;;;15.69;100.00;96422.63;4959524;28;20216;-79
2022/07/01 03:41:15;;;;;;;1.47;1.00;;;;;;;15.61;100.00;96404.88;4947174;28;20296;-78
2022/07/01 03:43:42;;;;;;;0.70;0.70;;;;;;;15.58;100.00;96410.00;4957813;28;20217;-78
2022/07/01 03:46:12;;;;;;;3.33;0.83;;;;;;;15.48;100.00;96408.00;4964173;28;20209;-79
2022/07/01 03:48:39;;;;;;;0.70;0.70;;;;;;;15.42;100.00;96404.41;4948367;28;20268;-78
2022/07/01 03:51:06;;;;;;;2.23;0.80;;;;;;;15.34;100.00;96409.50;4947086;28;20285;-78
2022/07/01 03:56:19;;;;;;;0.70;0.70;;;;;;;15.25;100.00;96413.78;4958042;28;20234;-78
2022/07/01 03:58:46;;;;;;;0.60;0.60;;;;;;;15.18;100.00;96414.00;4961413;28;20288;-78
2022/07/01 04:01:13;;;;;;;0.70;0.70;;;;;;;15.17;100.00;96414.25;4957350;28;20236;-78
2022/07/01 04:03:40;;;;;;;0.70;0.70;;;;;;;15.17;100.00;96425.94;4945538;28;20221;-78
2022/07/01 04:06:07;;;;;;;0.70;0.70;;;;;;;15.13;100.00;96414.78;4947453;28;20212;-78
2022/07/01 04:08:36;;;;;;;0.70;0.70;;;;;;;15.08;100.00;96411.97;4948271;28;20218;-78
2022/07/01 04:11:04;;;;;;;0.53;0.53;;;;;;;15.08;100.00;96414.72;4946837;28;20225;-78
2022/07/01 04:13:32;;;;;;;0.60;0.60;;;;;;;15.06;100.00;96408.69;4947476;28;20225;-78
2022/07/01 04:16:00;;;;;;;0.80;0.80;;;;;;;15.04;100.00;96404.63;4963885;28;20212;-78
2022/07/01 04:18:28;;;;;;;0.60;0.60;;;;;;;15.02;100.00;96399.44;4956725;28;20220;-78
2022/07/01 04:23:41;;;;;;;0.70;0.70;;;;;;;15.06;100.00;96405.16;4968347;28;20287;-78
2022/07/01 04:26:09;;;;;;;0.70;0.70;;;;;;;14.99;100.00;96408.09;4946075;28;20217;-78
2022/07/01 04:28:36;;;;;;;1.67;0.70;;;;;;;15.04;100.00;96415.50;4957041;28;20201;-78
2022/07/01 04:31:03;;;;;;;0.83;0.73;;;;;;;15.07;100.00;96412.25;4962947;28;20207;-78
2022/07/01 04:33:30;;;;;;;0.77;0.77;;;;;;;15.05;100.00;96409.81;4954574;28;20215;-78
2022/07/01 04:35:57;;;;;;;1.50;0.87;;;;;;;15.09;100.00;96418.25;4948269;28;20197;-78
2022/07/01 04:38:24;;;;;;;0.70;0.70;;;;;;;15.13;100.00;96413.94;4949350;28;20263;-78
2022/07/01 04:43:33;;;;;;;0.73;0.73;;;;;;;15.11;100.00;96432.41;4959133;28;20213;-78
2022/07/01 04:46:00;;;;;;;0.70;0.70;;;;;;;15.14;100.00;96437.34;4952864;28;20208;-77
2022/07/01 04:48:27;;;;;;;0.90;0.80;;;;;;;15.15;100.00;96431.63;4958757;28;20224;-78
2022/07/01 04:50:54;;;;;;;1.07;0.77;;;;;;;15.26;100.00;96420.84;4941040;28;20216;-78
2022/07/01 04:53:21;;;;;;;0.70;0.70;;;;;;;15.33;100.00;96425.00;4957570;28;20296;-78
2022/07/01 04:55:48;;;;;;;0.90;0.80;;;;;;;15.24;100.00;96409.41;4945206;28;20313;-78
2022/07/01 04:58:16;;;;;;;1.30;1.20;;;;;;;15.18;100.00;96422.16;4947077;28;20279;-78
2022/07/01 05:00:43;;;;;;;0.70;0.70;;;;;;;15.20;100.00;96424.63;4943355;28;20216;-78
2022/07/01 05:03:10;;;;;;;0.63;0.63;;;;;;;14.95;100.00;96419.75;4944321;28;20224;-78
2022/07/01 05:05:37;;;;;;;0.60;0.60;;;;;;;14.84;100.00;96432.41;4961242;28;20197;-78
2022/07/01 05:08:06;;;;;;;0.60;0.60;;;;;;;14.86;100.00;96435.69;4963382;28;20205;-78
2022/07/01 05:10:33;;;;;;;0.70;0.70;;;;;;;14.83;100.00;96419.88;4963318;28;20204;-78
2022/07/01 05:13:00;;;;;;;0.60;0.60;;;;;;;14.88;100.00;96421.84;4945799;28;20275;-78
2022/07/01 05:15:29;;;;;;;1.10;0.73;;;;;;;14.91;100.00;96415.88;4946959;28;20219;-78
2022/07/01 05:23:25;;;;;;;0.80;0.80;;;;;;;14.96;100.00;96446.69;4943959;28;20264;-77
2022/07/01 05:25:53;;;;;;;1.97;0.80;;;;;;;14.91;100.00;96421.31;4942709;28;20219;-77
2022/07/01 05:28:20;;;;;;;1.00;0.90;;;;;;;14.88;100.00;96440.88;4947463;28;20204;-77
2022/07/01 05:30:48;;;;;;;1.10;0.90;;;;;;;14.85;100.00;96450.34;4964755;28;20204;-77
2022/07/01 05:33:16;;;;;;;3.33;1.20;;;;;;;14.83;100.00;96440.81;4958180;28;20233;-77
2022/07/01 05:35:43;;;;;;;1.60;0.90;;;;;;;14.85;100.00;96466.66;4960593;28;20208;-78
2022/07/01 05:38:10;;;;;;;0.93;0.80;;;;;;;14.83;100.00;96479.69;4956472;28;20240;-77
2022/07/01 05:40:37;;;;;;;2.47;0.93;;;;;;;14.80;100.00;96482.91;4962936;28;20205;-78
2022/07/01 05:43:04;;;;;;;0.83;0.80;;;;;;;14.80;100.00;96474.75;4961367;28;20201;-77
2022/07/01 05:45:31;;;;;;;1.40;1.00;;;;;;;14.79;100.00;96458.72;4968090;28;20200;-77
2022/07/01 05:47:59;;;;;;;1.03;0.93;;;;;;;14.85;100.00;96487.59;4950527;28;20209;-77
2022/07/01 05:50:27;;;;;;;8.53;1.40;;;;;;;14.88;100.00;96490.63;4968056;28;20307;-77
2022/07/01 05:52:54;;;;;;;1.27;1.00;;;;;;;14.87;100.00;96483.56;4968132;28;20213;-78
2022/07/01 05:55:22;;;;;;;1.20;1.00;;;;;;;14.78;100.00;96474.19;4949884;28;20205;-77
2022/07/01 05:57:52;;;;;;;1.93;1.00;;;;;;;14.75;100.00;96474.69;4968830;28;20241;-77
2022/07/01 06:00:19;;;;;;;1.17;0.83;;;;;;;14.75;100.00;96467.38;4950841;28;20316;-77
2022/07/01 06:02:46;;;;;;;1.30;0.80;;;;;;;14.72;100.00;96481.44;4964380;28;20199;-77
2022/07/01 06:05:14;;;;;;;1.63;1.07;;;;;;;14.74;100.00;96478.50;4969103;28;20209;-77
2022/07/01 06:07:41;;;;;;;1.53;0.90;;;;;;;14.68;100.00;96487.66;4949457;28;20305;-77
2022/07/01 06:10:10;;;;;;;1.33;1.00;;;;;;;14.72;100.00;96480.63;4950152;28;20223;-77
2022/07/01 06:12:38;;;;;;;2.90;1.10;;;;;;;14.73;100.00;96464.06;4964653;28;20205;-77
2022/07/01 06:15:07;;;;;;;2.70;1.10;;;;;;;14.75;100.00;96466.53;4945241;28;20212;-77
2022/07/01 06:17:34;;;;;;;1.10;1.00;;;;;;;14.64;100.00;96453.91;4951137;28;20247;-77
2022/07/01 06:20:02;;;;;;;1.63;1.10;;;;;;;14.62;100.00;96450.63;4962144;28;20210;-77
2022/07/01 06:22:30;;;;;;;0.87;0.83;;;;;;;14.59;100.00;96489.16;4947940;28;20320;-77
2022/07/01 06:24:57;;;;;;;1.20;1.10;;;;;;;14.55;100.00;96498.88;4945560;28;20241;-77
2022/07/01 06:27:24;;;;;;;1.27;1.10;;;;;;;14.53;100.00;96482.03;4952024;28;20204;-77
2022/07/01 06:29:52;;;;;;;1.57;1.20;;;;;;;14.61;100.00;96466.13;4950973;28;20201;-77
2022/07/01 06:32:19;;;;;;;2.93;1.00;;;;;;;14.65;100.00;96461.81;4953750;28;20318;-77
2022/07/01 06:34:47;;;;;;;2.20;1.30;;;;;;;14.61;100.00;96466.13;4943446;28;20205;-77
2022/07/01 06:37:15;;;;;;;1.63;1.20;;;;;;;14.60;100.00;96469.06;4967814;28;20222;-77
2022/07/01 06:39:43;;;;;;;2.00;1.80;;;;;;;14.67;100.00;96477.84;4960976;28;20204;-77
2022/07/01 06:42:10;;;;;;;1.90;1.13;;;;;;;14.69;100.00;96471.09;4964045;28;20212;-77
2022/07/01 06:44:38;;;;;;;1.40;1.20;;;;;;;14.69;100.00;96462.13;4951492;28;20216;-77
2022/07/01 06:47:05;;;;;;;3.13;1.40;;;;;;;14.71;100.00;96470.84;4959709;28;20205;-77
2022/07/01 06:49:32;;;;;;;1.63;1.20;;;;;;;14.76;100.00;96460.84;4962730;28;20216;-77
2022/07/01 06:51:59;;;;;;;1.70;1.23;;;;;;;14.81;100.00;96470.97;4965853;28;20197;-77
2022/07/01 06:54:28;;;;;;;1.53;1.10;;;;;;;14.89;100.00;96470.50;4959068;28;20205;-77
2022/07/01 06:56:56;;;;;;;3.43;1.20;;;;;;;14.95;100.00;96452.38;4943485;28;20233;-77
2022/07/01 06:59:23;;;;;;;2.70;1.10;;;;;;;15.01;100.00;96435.03;4962208;28;20252;-77
2022/07/01 07:01:50;;;;;;;2.27;1.57;;;;;;;15.04;100.00;96451.66;4961006;28;20295;-77
2022/07/01 07:04:17;;;;;;;1.67;1.20;;;;;;;15.10;100.00;96457.97;4942512;28;20265;-77
2022/07/01 07:06:44;;;;;;;2.40;1.10;;;;;;;14.97;100.00;96434.69;4952681;28;20256;-77
2022/07/01 07:09:11;;;;;;;1.50;0.93;;;;;;;15.06;100.00;96441.31;4943835;28;20201;-77
2022/07/01 07:11:39;;;;;;;1.10;0.87;;;;;;;14.97;100.00;96442.84;4961590;28;20208;-77
2022/07/01 07:14:07;;;;;;;1.03;0.87;;;;;;;14.97;100.00;96455.66;4964326;28;20212;-77
2022/07/01 07:16:34;;;;;;;0.87;0.87;;;;;;;14.94;100.00;96476.03;4959420;28;20212;-77
2022/07/01 07:19:01;;;;;;;1.90;1.13;;;;;;;14.93;100.00;96476.28;4948066;28;20228;-77
2022/07/01 07:21:28;;;;;;;0.80;0.80;;;;;;;14.95;100.00;96493.97;4965008;28;20291;-77
2022/07/01 07:23:55;;;;;;;0.97;0.90;;;;;;;15.01;100.00;96492.97;4966307;28;20209;-77
2022/07/01 07:26:22;;;;;;;0.70;0.70;;;;;;;15.05;100.00;96464.19;4942812;28;20249;-77
2022/07/01 07:28:49;;;;;;;2.00;0.90;;;;;;;15.10;100.00;96447.91;4943861;28;20363;-77
2022/07/01 07:31:18;;;;;;;2.40;1.37;;;;;;;15.25;100.00;96449.97;4956163;28;20216;-77
2022/07/01 07:33:45;;;;;;;1.43;0.90;;;;;;;15.29;100.00;96453.81;4958771;28;20213;-77
2022/07/01 07:36:12;;;;;;;1.00;0.90;;;;;;;15.27;100.00;96485.06;4946399;28;20209;-77
2022/07/01 07:38:39;;;;;;;4.03;1.23;;;;;;;15.09;100.00;96481.63;4967272;28;20220;-77
2022/07/01 07:41:06;;;;;;;2.53;1.10;;;;;;;15.08;100.00;96488.13;4965034;28;20263;-77
2022/07/01 07:43:33;;;;;;;2.07;1.03;;;;;;;15.04;100.00;96484.28;4946214;28;20205;-77
2022/07/01 07:46:01;;;;;;;1.13;1.03;;;;;;;15.05;100.00;96463.38;4945552;28;20202;-77
2022/07/01 07:48:30;;;;;;;4.37;1.60;;;;;;;15.09;100.00;96437.28;4960825;28;20232;-77
2022/07/01 07:50:57;;;;;;;1.20;1.10;;;;;;;15.10;100.00;96437.03;4958708;28;20206;-77
2022/07/01 07:53:24;;;;;;;2.53;1.30;;;;;;;15.10;100.00;96455.25;4963578;28;20213;-77
2022/07/01 07:55:51;;;;;;;2.27;1.30;;;;;;;15.07;100.00;96458.47;4963513;28;20217;-77
2022/07/01 07:58:18;;;;;;;1.20;1.00;;;;;;;15.09;100.00;96454.44;4946019;28;20247;-77
2022/07/01 08:00:45;;;;;;;1.67;1.00;;;;;;;15.14;100.00;96459.13;4948207;28;20324;-77
2022/07/01 08:03:12;;;;;;;1.83;1.07;;;;;;;15.04;100.00;96459.81;4965002;28;20201;-77
2022/07/01 08:05:41;;;;;;;3.17;1.13;;;;;;;15.14;100.00;96464.56;4946183;28;20280;-77
2022/07/01 08:08:08;;;;;;;2.93;1.20;;;;;;;15.18;100.00;96471.09;4960118;28;20214;-77
2022/07/01 08:10:35;;;;;;;2.37;1.07;;;;;;;15.04;100.00;96478.84;4941009;28;20216;-77
2022/07/01 08:13:04;;;;;;;1.80;1.30;;;;;;;14.88;100.00;96496.06;4961008;28;20232;-77
2022/07/01 08:15:31;;;;;;;1.90;1.20;;;;;;;14.83;100.00;96492.47;4961271;28;20205;-77
2022/07/01 08:17:58;;;;;;;1.83;1.10;;;;;;;14.99;100.00;96483.41;4965361;28;20232;-77
2022/07/01 08:20:25;;;;;;;1.93;1.23;;;;;;;15.05;100.00;96466.91;4948123;28;20307;-76
2022/07/01 08:22:54;;;;;;;1.43;1.17;;;;;;;15.09;100.00;96464.47;4965182;28;20201;-77
2022/07/01 08:25:21;;;;;;;3.77;1.50;;;;;;;15.15;100.00;96464.28;4942643;28;20205;-77
2022/07/01 08:27:49;;;;;;;1.97;1.20;;;;;;;15.23;100.00;96483.94;4945873;28;20206;-77
2022/07/01 08:30:16;;;;;;;2.73;1.50;;;;;;;15.30;100.00;96482.66;4946599;28;20307;-77
2022/07/01 08:32:44;;;;;;;2.60;0.80;;;;;;;15.30;100.00;96484.56;4941040;28;20216;-77
2022/07/01 08:35:12;;;;;;;1.73;1.30;;;;;;;15.21;100.00;96483.38;4949919;28;20208;-77
2022/07/01 08:37:39;;;;;;;1.80;1.03;;;;;;;15.27;100.00;96479.63;4956932;28;20264;-77
2022/07/01 08:40:09;;;;;;;2.13;1.10;;;;;;;15.08;100.00;96471.81;4959653;28;20205;-77
2022/07/01 08:42:37;;;;;;;2.20;1.23;;;;;;;15.01;100.00;96464.94;4964826;28;20248;-77
2022/07/01 08:45:04;;;;;;;2.13;1.13;;;;;;;15.04;100.00;96473.41;4950116;28;20256;-77
2022/07/01 08:47:32;;;;;;;1.67;1.50;;;;;;;15.14;100.00;96486.31;4960583;28;20269;-77
2022/07/01 08:50:01;;;;;;;1.20;1.10;;;;;;;15.15;100.00;96488.75;4940299;28;20253;-77
2022/07/01 08:52:29;;;;;;;2.90;1.23;;;;;;;15.26;100.00;96486.16;4949244;28;20215;-77
2022/07/01 08:54:56;;;;;;;4.13;1.50;;;;;;;15.23;100.00;96478.47;4955760;28;20205;-77
2022/07/01 08:57:25;;;;;;;2.80;1.20;;;;;;;15.27;100.00;96487.78;4949222;28;20244;-77
2022/07/01 09:00:03;;;;;;;2.03;1.30;;;;;;;15.28;100.00;96487.53;4949549;28;20307;-77
2022/07/01 09:02:51;;;;;;;3.80;1.70;;;;;;;15.24;100.00;96508.16;4947774;28;20197;-77
2022/07/01 09:05:18;;;;;;;3.13;1.40;;;;;;;15.07;100.00;96502.81;4946907;28;20244;-77
2022/07/01 09:07:47;;;;;;;2.27;1.73;;;;;;;15.03;100.00;96507.13;4963933;28;20213;-77
2022/07/01 09:10:17;;;;;;;2.33;1.30;;;;;;;15.03;100.00;96517.19;4950352;28;20212;-77
2022/07/01 09:12:46;;;;;;;2.47;1.30;;;;;;;15.03;100.00;96534.31;4953172;28;20213;-77
2022/07/01 09:15:22;;;;;;;2.00;1.37;;;;;;;15.05;100.00;96521.28;4950345;28;20216;-77
2022/07/01 09:17:49;;;;;;;4.27;1.27;;;;;;;15.17;100.00;96517.59;4958987;28;20313;-77
2022/07/01 09:20:25;;;;;;;3.37;1.40;;;;;;;15.28;100.00;96516.63;4952245;28;20300;-78
2022/07/01 09:23:14;;;;;;;1.83;1.30;;;;;;;15.36;100.00;96521.63;4966980;28;20209;-77
2022/07/01 09:25:44;;;;;;;4.23;1.50;;;;;;;15.39;100.00;96510.25;4950948;28;20227;-77
2022/07/01 09:28:14;;;;;;;1.53;1.00;;;;;;;15.46;100.00;96521.72;4963829;28;20287;-77
2022/07/01 09:30:44;;;;;;;3.43;1.40;;;;;;;15.50;100.00;96514.69;4946826;28;20209;-77
2022/07/01 09:33:13;;;;;;;2.40;1.30;;;;;;;15.49;100.00;96527.47;4962053;28;20205;-77
2022/07/01 09:35:41;;;;;;;1.93;1.23;;;;;;;15.45;100.00;96522.81;4949034;28;20223;-77
2022/07/01 09:38:11;;;;;;;1.27;1.10;;;;;;;15.43;100.00;96533.13;4958958;28;20224;-77
2022/07/01 09:40:49;;;;;;;1.40;1.20;;;;;;;15.41;100.00;96538.81;4962766;28;20241;-77
2022/07/01 09:43:19;;;;;;;1.50;1.10;;;;;;;15.35;100.00;96536.31;4947333;28;20231;-77
2022/07/01 09:45:51;;;;;;;0.90;0.90;;;;;;;15.35;100.00;96525.41;4962457;28;20213;-77
2022/07/01 09:48:18;;;;;;;2.40;1.20;;;;;;;15.38;100.00;96519.47;4967510;28;20205;-77
2022/07/01 09:50:46;;;;;;;1.87;0.90;;;;;;;15.42;100.00;96523.31;4959200;28;20213;-77
2022/07/01 09:53:13;;;;;;;1.10;1.00;;;;;;;15.42;100.00;96539.63;4941889;28;21422;-77
2022/07/01 09:55:40;;;;;;;2.47;1.10;;;;;;;15.45;100.00;96542.69;4963159;28;20237;-77
2022/07/01 09:58:07;;;;;;;1.47;1.03;;;;;;;15.47;100.00;96539.72;4960322;28;20232;-77
2022/07/01 10:00:37;;;;;;;1.23;0.90;;;;;;;15.43;100.00;96539.38;4952237;28;20197;-78
2022/07/01 10:03:06;;;;;;;1.73;1.37;;;;;;;15.51;100.00;96546.25;4952773;28;20206;-77
2022/07/01 10:05:39;;;;;;;1.90;1.43;;;;;;;15.52;100.00;96540.56;4963399;28;20209;-77
2022/07/01 10:08:19;;;;;;;1.57;1.30;;;;;;;15.66;100.00;96543.72;4939260;28;20257;-77
2022/07/01 10:10:52;;;;;;;2.47;1.40;;;;;;;15.74;100.00;96540.53;4950831;28;20209;-77
2022/07/01 10:13:25;;;;;;;3.20;1.13;;;;;;;15.82;100.00;96537.34;4959618;28;20210;-77
2022/07/01 10:15:56;;;;;;;2.47;1.10;;;;;;;15.81;100.00;96545.78;4937200;28;20224;-77
2022/07/01 10:18:25;;;;;;;1.30;1.10;;;;;;;15.82;100.00;96553.66;4946397;28;20301;-77
2022/07/01 10:20:53;;;;;;;1.20;1.10;;;;;;;15.86;100.00;96565.72;4961054;28;20201;-77
2022/07/01 10:23:22;;;;;;;2.00;1.40;;;;;;;15.84;100.00;96562.41;4955558;28;20311;-77
2022/07/01 10:25:50;;;;;;;1.43;1.10;;;;;;;15.97;100.00;96571.25;4948804;28;20216;-77
2022/07/01 10:28:27;;;;;;;2.30;1.60;;;;;;;16.05;100.00;96568.88;4962795;28;20275;-77
2022/07/01 10:31:15;;;;;;;1.73;1.03;;;;;;;16.09;100.00;96566.44;4951670;28;20209;-77
2022/07/01 10:33:48;;;;;;;2.40;1.40;;;;;;;16.16;100.00;96575.25;4950331;28;20296;-77
2022/07/01 10:36:20;;;;;;;1.20;1.10;;;;;;;15.97;100.00;96588.41;4954616;28;20206;-77
2022/07/01 10:39:14;;;;;;;1.30;1.20;;;;;;;15.92;100.00;96590.25;4937214;29;20245;-77
2022/07/01 10:41:55;;;;;;;3.60;1.43;;;;;;;15.89;100.00;96581.53;4939121;28;20216;-77
2022/07/01 10:44:23;;;;;;;2.27;1.20;;;;;;;16.09;100.00;96591.78;4943502;28;20247;-77
2022/07/01 10:46:57;;;;;;;1.60;1.10;;;;;;;16.32;100.00;96593.34;4945642;29;20213;-77
2022/07/01 10:49:53;;;;;;;1.27;1.10;;;;;;;16.39;100.00;96593.94;4949468;28;20216;-77
2022/07/01 10:52:21;;;;;;;1.70;1.10;;;;;;;16.50;100.00;96589.41;4947684;29;20209;-77
2022/07/01 10:54:53;;;;;;;1.17;1.00;;;;;;;16.43;100.00;96588.78;4945406;28;20210;-77
2022/07/01 10:57:28;;;;;;;2.70;1.10;;;;;;;16.55;100.00;96597.59;4963500;28;20332;-78
2022/07/01 10:59:57;;;;;;;1.67;0.93;;;;;;;16.77;100.00;96594.75;4949911;28;20220;-77
2022/07/01 11:02:28;;;;;;;2.97;1.40;;;;;;;16.85;100.00;96595.09;4951508;28;20213;-77
2022/07/01 11:04:58;;;;;;;1.67;1.20;;;;;;;16.84;100.00;96592.66;4952140;28;20205;-77
2022/07/01 11:07:27;;;;;;;2.30;1.00;;;;;;;16.85;100.00;96589.63;4967850;28;20208;-77
2022/07/01 11:09:54;;;;;;;1.20;1.00;;;;;;;16.95;100.00;96600.59;4942721;28;20209;-77
2022/07/01 11:12:23;;;;;;;1.50;1.20;;;;;;;16.95;100.00;96607.97;4943353;28;20236;-78
2022/07/01 11:14:51;;;;;;;2.17;1.53;;;;;;;16.89;100.00;96609.84;4947274;28;20296;-78
2022/07/01 11:17:19;;;;;;;2.13;1.20;;;;;;;16.85;100.00;96610.63;4960582;28;20255;-77
2022/07/01 11:19:51;;;;;;;1.60;1.10;;;;;;;16.75;100.00;96610.59;4950884;28;20323;-78
2022/07/01 11:22:22;;;;;;;1.70;1.10;;;;;;;16.61;100.00;96605.56;4945278;28;20205;-78
2022/07/01 11:24:53;;;;;;;3.13;1.30;;;;;;;16.50;100.00;96603.03;4949744;28;20212;-77
2022/07/01 11:27:21;;;;;;;1.37;1.00;;;;;;;16.55;100.00;96601.16;4941881;28;20217;-77
2022/07/01 11:29:52;;;;;;;1.57;1.40;;;;;;;16.73;100.00;96608.13;4953109;28;20218;-77
2022/07/01 11:32:25;;;;;;;2.43;1.30;;;;;;;16.81;100.00;96614.97;4960403;28;20288;-77
2022/07/01 11:34:54;;;;;;;1.43;1.07;;;;;;;16.87;100.00;96613.94;4943006;28;20267;-77
2022/07/01 11:40:08;;;;;;;1.97;1.00;;;;;;;16.96;100.00;96618.63;4950350;28;20228;-77
2022/07/01 11:42:35;;;;;;;1.10;1.00;;;;;;;16.92;100.00;96622.16;4962997;28;20236;-78
2022/07/01 11:45:03;;;;;;;1.57;1.00;;;;;;;16.92;100.00;96620.25;4937617;29;20217;-78
2022/07/01 11:47:30;;;;;;;0.80;0.80;;;;;;;16.78;100.00;96615.50;4946984;28;20217;-77
2022/07/01 11:50:00;;;;;;;0.77;0.77;;;;;;;16.72;100.00;96616.56;4948028;28;20224;-77